Time;durP1;ratioP1;P1;durP2;ratioP2;P2;SDS_P1;SDS_P2;PMS_P1;PMS_P2;Temp;Humidity;BMP_temperature;BMP_pressure;BME280_temperature;BME280_humidity;BME280_pressure;Samples;Min_cycle;Max_cycle;Signal;HPM_P1;HPM_P2
2022/08/04 00:01:22;;;;;;;1.40;1.30;;;19.60;7.50;;;;;;5084709;28;34254;-77
2022/08/04 00:03:58;;;;;;;1.73;1.50;;;19.60;5.80;;;;;;5068362;28;34335;-76
2022/08/04 00:06:47;;;;;;;1.30;1.20;;;19.50;5.50;;;;;;5076573;28;34861;-76
2022/08/04 00:09:23;;;;;;;1.98;1.38;;;19.50;7.80;;;;;;5097620;28;34987;-77
2022/08/04 00:11:53;;;;;;;4.88;1.38;;;19.40;5.30;;;;;;5067618;28;34196;-76
2022/08/04 00:14:22;;;;;;;1.95;1.40;;;19.50;5.30;;;;;;5066718;28;34580;-77
2022/08/04 00:16:51;;;;;;;1.50;1.40;;;19.40;5.30;;;;;;5066904;28;34129;-77
2022/08/04 00:19:32;;;;;;;1.50;1.20;;;19.40;5.00;;;;;;5066610;28;35870;-77
2022/08/04 00:22:02;;;;;;;1.65;1.40;;;19.40;6.70;;;;;;5075015;28;34591;-77
2022/08/04 00:24:30;;;;;;;2.50;1.20;;;19.30;5.30;;;;;;5076649;28;34419;-77
2022/08/04 00:26:57;;;;;;;1.63;1.10;;;19.20;5.50;;;;;;5078708;28;34441;-77
2022/08/04 00:29:24;;;;;;;1.90;1.13;;;19.20;5.30;;;;;;5066867;28;35830;-76
2022/08/04 00:31:50;;;;;;;1.95;1.67;;;19.20;5.40;;;;;;5057614;28;34239;-76
2022/08/04 00:34:16;;;;;;;2.03;1.27;;;19.10;5.40;;;;;;5084409;28;34047;-77
2022/08/04 00:36:43;;;;;;;1.38;1.25;;;19.10;5.50;;;;;;5065869;28;34339;-76
2022/08/04 00:39:12;;;;;;;2.15;1.30;;;19.00;5.70;;;;;;5099511;28;35447;-77
2022/08/04 00:41:56;;;;;;;1.65;1.55;;;19.00;6.40;;;;;;5081309;28;34262;-77
2022/08/04 00:44:55;;;;;;;2.85;1.48;;;19.00;8.20;;;;;;5048375;28;34574;-76
2022/08/04 00:47:45;;;;;;;7.57;1.50;;;18.90;8.80;;;;;;5067502;27;34178;-76
2022/08/04 00:50:23;;;;;;;3.47;1.15;;;18.90;8.10;;;;;;5096598;28;35626;-77
2022/08/04 00:53:11;;;;;;;1.25;1.15;;;18.80;7.50;;;;;;5052006;28;34001;-76
2022/08/04 00:56:09;;;;;;;2.15;1.33;;;18.80;8.00;;;;;;5095815;28;34179;-76
2022/08/04 00:58:58;;;;;;;6.07;1.30;;;18.80;9.60;;;;;;5082617;28;34434;-77
2022/08/04 01:01:46;;;;;;;1.63;1.10;;;18.70;7.80;;;;;;5060158;28;35783;-77
2022/08/04 01:04:25;;;;;;;1.50;1.33;;;18.70;9.90;;;;;;5066006;28;34427;-77
2022/08/04 01:07:13;;;;;;;1.40;1.30;;;18.60;7.50;;;;;;5080616;28;34198;-77
2022/08/04 01:09:59;;;;;;;3.47;1.40;;;18.60;8.30;;;;;;5084963;28;34077;-77
2022/08/04 01:12:42;;;;;;;1.33;1.23;;;18.60;7.60;;;;;;5049722;28;35842;-76
2022/08/04 01:15:38;;;;;;;2.35;1.23;;;18.50;9.40;;;;;;5044379;28;34125;-77
2022/08/04 01:18:07;;;;;;;1.50;1.23;;;18.50;10.30;;;;;;5079904;28;34096;-77
2022/08/04 01:20:46;;;;;;;1.35;1.20;;;18.50;7.10;;;;;;5056705;28;34116;-77
2022/08/04 01:23:36;;;;;;;7.57;1.20;;;18.50;8.50;;;;;;5073554;28;36130;-77
2022/08/04 01:26:27;;;;;;;6.80;1.30;;;18.50;9.20;;;;;;5075327;28;34092;-77
2022/08/04 01:29:11;;;;;;;1.42;1.20;;;18.50;9.30;;;;;;5085452;28;34103;-77
2022/08/04 01:32:06;;;;;;;1.23;1.13;;;18.40;9.60;;;;;;5069839;28;34373;-77
2022/08/04 01:34:41;;;;;;;1.20;1.10;;;18.40;10.80;;;;;;5051106;28;36213;-77
2022/08/04 01:37:14;;;;;;;2.45;1.25;;;18.30;7.60;;;;;;5059455;28;34344;-77
2022/08/04 01:39:59;;;;;;;2.53;1.30;;;18.30;7.60;;;;;;5083080;28;34219;-76
2022/08/04 01:42:26;;;;;;;2.70;1.20;;;18.30;7.90;;;;;;5084985;28;34291;-76
2022/08/04 01:44:54;;;;;;;1.92;1.30;;;18.30;7.20;;;;;;5065640;28;34199;-77
2022/08/04 01:47:21;;;;;;;2.83;1.33;;;18.20;7.30;;;;;;5053848;28;34202;-77
2022/08/04 01:49:49;;;;;;;1.15;1.00;;;18.20;7.30;;;;;;5065303;28;34056;-76
2022/08/04 01:52:17;;;;;;;1.77;1.23;;;18.20;7.70;;;;;;5057870;28;34188;-76
2022/08/04 01:54:45;;;;;;;1.50;1.40;;;18.20;7.50;;;;;;5055348;28;35282;-76
2022/08/04 01:57:11;;;;;;;2.17;1.42;;;18.10;7.50;;;;;;5046060;28;34119;-76
2022/08/04 01:59:39;;;;;;;1.40;1.30;;;18.10;7.60;;;;;;5041458;28;34363;-76
2022/08/04 02:02:05;;;;;;;1.38;1.27;;;18.10;7.80;;;;;;5041660;28;34352;-77
2022/08/04 02:04:34;;;;;;;1.40;1.25;;;18.00;7.80;;;;;;5042601;28;34226;-77
2022/08/04 02:07:25;;;;;;;2.83;1.50;;;17.90;8.00;;;;;;5041004;28;34115;-76
2022/08/04 02:10:06;;;;;;;2.22;1.33;;;17.90;11.70;;;;;;5029391;28;34132;-77
2022/08/04 02:12:51;;;;;;;1.60;1.23;;;17.80;9.40;;;;;;5037455;28;34166;-77
2022/08/04 02:15:41;;;;;;;1.40;1.30;;;17.80;10.20;;;;;;5029946;28;34937;-77
2022/08/04 02:18:24;;;;;;;1.58;1.48;;;17.80;12.10;;;;;;5011485;28;34012;-77
2022/08/04 02:20:57;;;;;;;3.85;1.40;;;17.80;10.00;;;;;;5028553;28;34137;-77
2022/08/04 02:23:30;;;;;;;1.60;1.40;;;17.70;9.60;;;;;;5032319;28;34289;-77
2022/08/04 02:26:00;;;;;;;2.03;1.20;;;17.80;10.00;;;;;;5023687;28;35680;-77
2022/08/04 02:28:35;;;;;;;1.55;1.30;;;17.70;8.80;;;;;;5046025;28;34354;-77
2022/08/04 02:31:21;;;;;;;1.50;1.40;;;17.70;10.40;;;;;;5036494;28;34232;-77
2022/08/04 02:34:08;;;;;;;2.13;1.33;;;17.60;9.90;;;;;;5028813;28;34455;-76
2022/08/04 02:36:39;;;;;;;1.58;1.35;;;17.70;11.40;;;;;;5024543;28;36516;-76
2022/08/04 02:39:08;;;;;;;1.45;1.20;;;17.60;9.10;;;;;;5026811;28;34110;-78
2022/08/04 02:41:35;;;;;;;1.40;1.30;;;17.60;9.10;;;;;;5044140;28;34253;-76
2022/08/04 02:44:04;;;;;;;1.77;1.38;;;17.60;9.10;;;;;;5042207;28;34142;-76
2022/08/04 02:46:33;;;;;;;1.45;1.23;;;17.60;9.10;;;;;;5045644;28;34468;-77
2022/08/04 02:49:03;;;;;;;2.35;2.05;;;17.50;9.20;;;;;;5061395;28;34044;-76
2022/08/04 02:51:34;;;;;;;1.55;1.45;;;17.50;9.40;;;;;;5022280;28;34206;-77
2022/08/04 02:54:04;;;;;;;2.47;1.58;;;17.50;9.40;;;;;;5029096;28;34485;-77
2022/08/04 02:56:32;;;;;;;1.85;1.60;;;17.50;9.70;;;;;;5048834;28;36285;-78
2022/08/04 02:59:01;;;;;;;1.45;1.35;;;17.40;9.40;;;;;;5046980;28;34395;-77
2022/08/04 03:01:28;;;;;;;1.40;1.30;;;17.40;9.60;;;;;;5093637;28;35944;-77
2022/08/04 03:04:25;;;;;;;2.35;1.58;;;17.30;9.50;;;;;;5068655;28;34094;-77
2022/08/04 03:07:24;;;;;;;2.65;1.55;;;17.30;12.10;;;;;;5068522;28;35850;-77
2022/08/04 03:10:17;;;;;;;2.30;1.13;;;17.30;11.90;;;;;;5097106;28;34097;-77
2022/08/04 03:13:19;;;;;;;1.15;1.05;;;17.20;12.60;;;;;;5048114;28;34187;-77
2022/08/04 03:16:23;;;;;;;1.40;1.30;;;17.20;12.20;;;;;;5049992;28;34290;-77
2022/08/04 03:19:18;;;;;;;1.35;1.25;;;17.20;12.00;;;;;;5085202;28;35846;-77
2022/08/04 03:22:15;;;;;;;1.77;1.48;;;17.20;11.90;;;;;;5087284;27;34133;-76
2022/08/04 03:25:05;;;;;;;3.25;1.45;;;17.20;11.90;;;;;;5100844;28;34395;-77
2022/08/04 03:28:02;;;;;;;1.40;1.30;;;17.10;11.30;;;;;;5052598;28;34356;-77
2022/08/04 03:30:59;;;;;;;1.30;1.20;;;17.10;12.40;;;;;;5101123;27;35125;-76
2022/08/04 03:33:50;;;;;;;1.77;1.50;;;17.00;12.70;;;;;;5067374;28;34240;-76
2022/08/04 03:36:47;;;;;;;2.47;1.42;;;17.10;12.60;;;;;;5068434;28;34159;-77
2022/08/04 03:39:48;;;;;;;1.30;1.20;;;17.00;12.20;;;;;;5052257;28;34210;-77
2022/08/04 03:42:38;;;;;;;1.77;1.40;;;17.00;12.20;;;;;;5053934;28;36076;-76
2022/08/04 03:45:33;;;;;;;5.45;1.50;;;16.90;12.20;;;;;;5067034;28;34240;-76
2022/08/04 03:48:29;;;;;;;1.40;1.20;;;17.00;12.40;;;;;;5084053;28;35354;-76
2022/08/04 03:54:30;;;;;;;1.50;1.33;;;16.90;11.10;;;;;;5050404;28;34150;-76
2022/08/04 03:57:25;;;;;;;1.98;1.30;;;16.90;12.80;;;;;;5053436;28;34205;-76
2022/08/04 04:00:11;;;;;;;1.48;1.38;;;16.90;12.40;;;;;;5036755;28;34160;-77
2022/08/04 04:03:06;;;;;;;2.17;1.50;;;16.80;12.50;;;;;;5063545;28;34447;-76
2022/08/04 04:05:58;;;;;;;2.40;1.20;;;16.80;11.90;;;;;;5049402;28;35972;-76
2022/08/04 04:08:41;;;;;;;1.40;1.30;;;16.80;12.50;;;;;;5051116;28;34114;-77
2022/08/04 04:11:33;;;;;;;1.50;1.40;;;16.70;11.70;;;;;;5064614;28;34204;-76
2022/08/04 04:14:27;;;;;;;2.00;1.80;;;16.70;12.50;;;;;;5025259;28;34452;-76
2022/08/04 04:17:24;;;;;;;4.30;1.30;;;16.70;12.40;;;;;;5024743;28;35718;-76
2022/08/04 04:20:09;;;;;;;1.65;1.30;;;16.70;13.30;;;;;;5037803;28;34139;-76
2022/08/04 04:22:59;;;;;;;3.35;1.50;;;16.60;11.50;;;;;;5041948;28;34131;-77
2022/08/04 04:25:45;;;;;;;1.45;1.35;;;16.70;13.20;;;;;;5043659;28;34664;-76
2022/08/04 04:28:42;;;;;;;1.95;1.42;;;16.70;12.10;;;;;;5040276;28;35034;-77
2022/08/04 04:31:34;;;;;;;2.67;1.35;;;16.70;14.40;;;;;;5021835;28;34256;-76
2022/08/04 04:34:34;;;;;;;1.88;1.48;;;16.60;12.70;;;;;;5036860;28;34319;-77
2022/08/04 04:37:22;;;;;;;2.17;1.65;;;16.70;13.60;;;;;;5030034;28;34277;-76
2022/08/04 04:40:23;;;;;;;2.38;1.40;;;16.70;12.40;;;;;;5024877;28;34438;-77
2022/08/04 04:43:21;;;;;;;1.55;1.30;;;16.70;13.70;;;;;;5060022;28;33999;-77
2022/08/04 04:46:16;;;;;;;1.40;1.30;;;16.80;13.40;;;;;;5029728;28;34126;-77
2022/08/04 04:48:57;;;;;;;1.88;1.40;;;16.80;12.70;;;;;;5020565;28;34026;-77
2022/08/04 04:51:43;;;;;;;1.75;1.30;;;16.80;12.60;;;;;;5038024;28;36489;-78
2022/08/04 04:54:33;;;;;;;3.28;1.65;;;16.80;12.50;;;;;;5021581;28;34164;-77
2022/08/04 04:57:20;;;;;;;1.90;1.65;;;16.90;13.80;;;;;;5042589;28;34272;-78
2022/08/04 05:00:06;;;;;;;6.65;1.60;;;16.90;11.70;;;;;;5041824;28;34268;-78
2022/08/04 05:03:08;;;;;;;2.53;1.60;;;17.00;11.60;;;;;;5039635;28;36678;-78
2022/08/04 05:06:03;;;;;;;2.72;1.90;;;17.00;14.30;;;;;;5023525;28;34327;-78
2022/08/04 05:08:47;;;;;;;1.65;1.55;;;17.10;13.60;;;;;;5046358;28;34134;-77
2022/08/04 05:11:42;;;;;;;1.80;1.70;;;17.10;12.70;;;;;;5040900;28;34320;-77
2022/08/04 05:14:24;;;;;;;1.70;1.60;;;17.20;13.50;;;;;;5046203;28;35699;-77
2022/08/04 05:17:02;;;;;;;1.65;1.55;;;17.40;12.80;;;;;;5028159;28;34154;-77
2022/08/04 05:19:46;;;;;;;1.88;1.67;;;17.40;11.60;;;;;;5037944;28;34102;-77
2022/08/04 05:22:23;;;;;;;1.50;1.40;;;17.80;11.50;;;;;;5041483;28;34292;-77
2022/08/04 05:24:54;;;;;;;1.70;1.55;;;18.20;10.90;;;;;;5043301;28;35995;-78
2022/08/04 05:27:30;;;;;;;1.58;1.48;;;18.70;9.70;;;;;;5043228;28;34241;-78
2022/08/04 05:30:02;;;;;;;1.70;1.60;;;19.30;9.00;;;;;;5044457;28;34002;-78
2022/08/04 05:32:37;;;;;;;1.75;1.65;;;19.70;8.30;;;;;;5024405;28;34681;-77
2022/08/04 05:35:15;;;;;;;4.15;1.98;;;19.90;8.20;;;;;;5037969;28;35867;-78
2022/08/04 05:37:44;;;;;;;3.15;1.60;;;20.00;7.70;;;;;;5042756;28;34096;-77
2022/08/04 05:40:12;;;;;;;1.67;1.58;;;20.20;7.80;;;;;;5042117;28;34345;-77
2022/08/04 05:42:40;;;;;;;4.03;1.50;;;20.40;7.60;;;;;;5060492;28;34134;-77
2022/08/04 05:45:08;;;;;;;1.95;1.80;;;20.60;7.40;;;;;;5061713;28;35823;-77
2022/08/04 05:47:36;;;;;;;1.80;1.60;;;20.80;7.20;;;;;;5022317;28;34196;-77
2022/08/04 05:50:05;;;;;;;1.70;1.60;;;21.10;6.80;;;;;;5022436;28;34308;-78
2022/08/04 05:52:33;;;;;;;3.90;1.60;;;21.40;6.60;;;;;;5023393;28;34320;-77
2022/08/04 05:55:00;;;;;;;2.15;1.90;;;21.80;6.00;;;;;;5024593;28;36340;-77
2022/08/04 05:57:27;;;;;;;4.22;1.80;;;22.30;5.70;;;;;;5040371;28;34899;-78
2022/08/04 05:59:56;;;;;;;3.28;2.20;;;22.80;5.20;;;;;;5041629;28;34119;-78
2022/08/04 06:02:23;;;;;;;3.65;1.88;;;23.30;4.70;;;;;;5035768;28;34330;-77
2022/08/04 06:04:51;;;;;;;3.60;1.60;;;23.70;4.10;;;;;;5033413;28;35590;-78
2022/08/04 06:07:17;;;;;;;1.98;1.77;;;24.20;3.40;;;;;;5028812;28;34196;-77
2022/08/04 06:09:44;;;;;;;2.40;1.70;;;24.50;2.90;;;;;;5044479;28;34110;-77
2022/08/04 06:12:22;;;;;;;2.10;1.88;;;24.90;2.30;;;;;;5044923;28;34152;-77
2022/08/04 06:14:52;;;;;;;2.40;1.75;;;25.20;1.40;;;;;;5036159;28;35716;-77
2022/08/04 06:17:27;;;;;;;1.52;1.42;;;25.40;1.30;;;;;;5031521;28;34486;-77
2022/08/04 06:19:55;;;;;;;6.45;3.65;;;25.60;1.00;;;;;;5043032;28;34279;-77
2022/08/04 06:22:23;;;;;;;2.03;1.83;;;26.00;1.00;;;;;;5029076;28;34121;-78
2022/08/04 06:24:53;;;;;;;1.95;1.67;;;26.30;1.00;;;;;;5028700;28;36944;-77
2022/08/04 06:27:22;;;;;;;1.50;1.40;;;26.50;1.00;;;;;;5025567;28;34197;-77
2022/08/04 06:29:49;;;;;;;2.10;1.70;;;26.80;1.00;;;;;;5035723;28;34015;-77
2022/08/04 06:35:01;;;;;;;2.88;1.70;;;27.30;1.00;;;;;;5044499;28;34362;-77
2022/08/04 06:37:28;;;;;;;4.15;1.65;;;27.50;1.00;;;;;;5044394;28;34240;-76
2022/08/04 06:39:55;;;;;;;2.80;1.45;;;27.70;1.00;;;;;;5039254;28;34308;-77
2022/08/04 06:42:25;;;;;;;2.45;1.58;;;27.90;1.00;;;;;;5045591;28;34529;-78
2022/08/04 06:44:55;;;;;;;1.75;1.65;;;28.20;1.00;;;;;;5023908;28;35486;-76
2022/08/04 06:47:22;;;;;;;2.58;1.70;;;28.50;1.00;;;;;;5028526;28;34162;-77
2022/08/04 06:49:51;;;;;;;2.20;2.05;;;28.70;1.00;;;;;;5044410;28;34165;-77
2022/08/04 06:52:19;;;;;;;1.60;1.50;;;29.00;1.00;;;;;;5056828;28;34170;-77
2022/08/04 06:54:47;;;;;;;3.85;2.03;;;29.30;1.00;;;;;;5045394;28;34686;-77
2022/08/04 06:57:17;;;;;;;2.13;1.95;;;29.50;1.00;;;;;;5058843;28;34269;-77
2022/08/04 06:59:45;;;;;;;2.42;1.73;;;29.80;1.00;;;;;;5055135;28;34257;-77
2022/08/04 07:02:16;;;;;;;3.38;1.90;;;29.90;1.00;;;;;;5051128;28;34267;-77
2022/08/04 07:04:43;;;;;;;4.75;1.60;;;29.80;1.00;;;;;;5048847;28;35632;-77
2022/08/04 07:07:17;;;;;;;2.85;1.63;;;29.90;1.00;;;;;;5083812;28;34151;-77
2022/08/04 07:09:43;;;;;;;2.40;1.77;;;30.10;1.00;;;;;;5061343;28;34252;-77
2022/08/04 07:12:11;;;;;;;2.45;1.83;;;30.40;1.00;;;;;;5066760;28;34295;-78
2022/08/04 07:14:39;;;;;;;2.22;1.55;;;30.60;1.00;;;;;;5064035;28;35630;-77
2022/08/04 07:17:08;;;;;;;1.88;1.77;;;30.90;1.00;;;;;;5065909;27;34284;-77
2022/08/04 07:19:36;;;;;;;1.80;1.50;;;31.30;1.00;;;;;;5067148;28;35086;-77
2022/08/04 07:22:04;;;;;;;2.47;1.33;;;31.60;1.00;;;;;;5035161;28;34669;-77
2022/08/04 07:24:35;;;;;;;1.80;1.65;;;32.00;1.00;;;;;;5049769;28;36353;-77
2022/08/04 07:27:03;;;;;;;3.17;1.50;;;32.40;1.00;;;;;;5066518;28;34318;-77
2022/08/04 07:29:30;;;;;;;4.80;1.50;;;32.50;1.00;;;;;;5051997;28;34255;-77
2022/08/04 07:31:58;;;;;;;1.30;1.20;;;32.70;1.00;;;;;;5067733;28;34327;-78
2022/08/04 07:34:25;;;;;;;5.63;1.60;;;32.90;1.00;;;;;;5082178;28;35568;-77
2022/08/04 07:36:54;;;;;;;2.25;1.67;;;32.90;1.00;;;;;;5082737;28;34368;-77
2022/08/04 07:39:21;;;;;;;1.52;1.40;;;32.80;1.00;;;;;;5077639;28;34602;-78
2022/08/04 07:41:47;;;;;;;1.65;1.35;;;32.80;1.00;;;;;;5045829;28;34151;-77
2022/08/04 07:44:14;;;;;;;2.28;1.60;;;33.00;1.00;;;;;;5072041;28;34327;-76
2022/08/04 07:46:42;;;;;;;7.30;1.38;;;33.20;1.00;;;;;;5068439;28;34110;-77
2022/08/04 07:49:09;;;;;;;1.40;1.30;;;33.30;1.00;;;;;;5071427;28;34221;-77
2022/08/04 07:51:36;;;;;;;32.00;3.10;;;33.40;1.00;;;;;;5085368;28;34325;-77
2022/08/04 07:54:04;;;;;;;1.77;1.30;;;33.40;1.00;;;;;;5069151;28;36884;-78
2022/08/04 07:56:34;;;;;;;4.03;1.70;;;33.50;1.00;;;;;;5093181;27;34144;-78
2022/08/04 07:59:00;;;;;;;1.83;1.30;;;33.50;1.00;;;;;;5062356;28;34352;-78
2022/08/04 08:01:27;;;;;;;2.63;1.50;;;33.60;1.00;;;;;;5057061;28;33912;-79
2022/08/04 08:03:55;;;;;;;1.50;1.40;;;33.60;1.00;;;;;;5048485;28;35505;-77
2022/08/04 08:06:22;;;;;;;6.53;1.55;;;33.50;1.00;;;;;;5061682;28;34135;-77
2022/08/04 08:08:49;;;;;;;1.80;1.35;;;33.60;1.00;;;;;;5058211;28;34258;-78
2022/08/04 08:11:16;;;;;;;1.80;1.40;;;33.80;1.00;;;;;;5070445;28;34165;-77
2022/08/04 08:13:43;;;;;;;2.33;1.10;;;34.10;1.00;;;;;;5085325;27;34382;-77
2022/08/04 08:16:11;;;;;;;2.28;1.30;;;34.40;1.00;;;;;;5065401;28;34096;-77
2022/08/04 08:18:37;;;;;;;5.30;1.55;;;34.50;1.00;;;;;;5064681;28;34258;-77
2022/08/04 08:21:03;;;;;;;1.48;1.38;;;34.70;1.00;;;;;;5078060;28;34508;-77
2022/08/04 08:23:33;;;;;;;3.60;1.48;;;34.70;1.00;;;;;;5050878;28;36525;-78
2022/08/04 08:26:00;;;;;;;2.33;1.42;;;34.90;1.00;;;;;;5067907;28;34271;-78
2022/08/04 08:28:27;;;;;;;1.30;1.20;;;35.10;1.00;;;;;;5077232;28;34211;-78
2022/08/04 08:30:54;;;;;;;4.10;1.70;;;35.30;1.00;;;;;;5064074;28;34125;-77
2022/08/04 08:33:38;;;;;;;2.60;1.30;;;35.50;1.00;;;;;;5105521;28;34205;-77
2022/08/04 08:36:25;;;;;;;3.72;1.55;;;35.70;1.00;;;;;;5088228;28;34183;-77
2022/08/04 08:39:07;;;;;;;1.80;1.38;;;35.80;1.00;;;;;;5085133;28;34174;-77
2022/08/04 08:42:08;;;;;;;2.45;1.50;;;35.70;1.00;;;;;;5060946;28;34415;-78
2022/08/04 08:45:09;;;;;;;2.83;1.55;;;35.60;1.00;;;;;;5074226;28;34644;-76
2022/08/04 08:47:59;;;;;;;4.03;1.30;;;35.80;1.00;;;;;;5054345;28;34486;-77
2022/08/04 08:50:51;;;;;;;1.48;1.20;;;36.00;1.00;;;;;;5060511;28;34491;-76
2022/08/04 08:53:48;;;;;;;1.80;1.35;;;36.10;1.00;;;;;;5070056;28;34200;-78
2022/08/04 08:56:36;;;;;;;1.40;1.30;;;36.10;1.00;;;;;;5069391;28;35509;-77
2022/08/04 08:59:33;;;;;;;2.00;1.40;;;36.20;1.00;;;;;;5069151;28;34167;-78
2022/08/04 09:02:34;;;;;;;1.60;1.20;;;36.50;1.00;;;;;;5076416;28;34228;-78
2022/08/04 09:05:24;;;;;;;1.40;1.30;;;36.40;1.00;;;;;;5083035;27;35117;-78
2022/08/04 09:08:21;;;;;;;2.13;1.35;;;36.40;1.00;;;;;;5068541;28;36258;-78
2022/08/04 09:11:09;;;;;;;13.77;1.90;;;36.50;1.00;;;;;;5101264;27;34293;-81
2022/08/04 09:13:48;;;;;;;2.63;1.10;;;36.60;1.00;;;;;;5066157;28;34179;-77
2022/08/04 09:16:35;;;;;;;3.05;1.30;;;36.80;1.00;;;;;;5061360;28;34207;-78
2022/08/04 09:19:11;;;;;;;1.85;1.27;;;37.00;1.00;;;;;;5062599;28;35560;-77
2022/08/04 09:21:50;;;;;;;2.95;1.40;;;37.10;1.00;;;;;;5083645;28;34282;-77
2022/08/04 09:24:37;;;;;;;1.92;1.25;;;37.20;1.00;;;;;;5101830;27;34436;-77
2022/08/04 09:27:12;;;;;;;4.70;1.40;;;37.40;1.00;;;;;;5086981;28;34246;-78
2022/08/04 09:29:47;;;;;;;2.42;1.17;;;37.20;1.00;;;;;;5070270;28;36738;-78
2022/08/04 09:32:42;;;;;;;2.63;1.60;;;37.00;1.00;;;;;;5075107;28;34167;-78
2022/08/04 09:35:23;;;;;;;3.25;1.50;;;36.90;1.00;;;;;;5081212;28;34124;-77
2022/08/04 09:38:12;;;;;;;3.08;1.55;;;36.70;1.00;;;;;;5069359;28;34249;-78
2022/08/04 09:40:54;;;;;;;1.08;1.05;;;36.70;1.00;;;;;;5069045;28;36324;-77
2022/08/04 09:43:36;;;;;;;1.70;1.30;;;36.80;1.00;;;;;;5082549;28;34089;-78
2022/08/04 09:46:13;;;;;;;1.35;1.25;;;36.70;1.00;;;;;;5070985;28;34412;-77
2022/08/04 09:49:13;;;;;;;1.42;1.33;;;36.60;1.00;;;;;;5070808;28;34037;-77
2022/08/04 09:51:59;;;;;;;2.80;1.20;;;36.60;1.00;;;;;;5094555;27;35989;-77
2022/08/04 09:54:44;;;;;;;1.33;1.10;;;36.60;1.00;;;;;;5066358;28;34280;-81
2022/08/04 09:57:30;;;;;;;1.27;1.17;;;36.50;1.00;;;;;;5060119;28;34480;-78
2022/08/04 10:00:16;;;;;;;1.10;1.00;;;36.50;1.00;;;;;;5079845;28;34464;-77
2022/08/04 10:02:50;;;;;;;1.38;0.95;;;36.50;1.00;;;;;;5046462;28;35106;-78
2022/08/04 10:05:21;;;;;;;2.03;1.10;;;36.40;1.00;;;;;;5041731;28;33987;-78
2022/08/04 10:08:09;;;;;;;3.25;1.30;;;36.60;1.00;;;;;;5046403;28;34189;-77
2022/08/04 10:10:58;;;;;;;0.95;0.80;;;36.90;1.00;;;;;;5045055;28;34467;-78
2022/08/04 10:13:59;;;;;;;4.47;1.00;;;37.00;1.00;;;;;;5026306;28;36563;-79
2022/08/04 10:16:46;;;;;;;5.03;1.05;;;37.30;1.00;;;;;;5036344;28;34241;-78
2022/08/04 10:19:24;;;;;;;3.60;0.95;;;37.60;1.00;;;;;;5053005;28;34969;-78
2022/08/04 10:22:14;;;;;;;1.00;0.90;;;37.70;1.00;;;;;;5061891;28;34399;-77
2022/08/04 10:25:08;;;;;;;2.45;1.10;;;37.90;1.00;;;;;;5047463;28;36393;-79
2022/08/04 10:27:58;;;;;;;2.00;0.80;;;37.90;1.00;;;;;;5031057;28;34371;-79
2022/08/04 10:30:27;;;;;;;0.80;0.80;;;37.90;1.00;;;;;;5046760;28;34597;-74
2022/08/04 10:33:13;;;;;;;1.15;0.80;;;37.70;1.00;;;;;;5050206;28;33855;-78
2022/08/04 10:36:02;;;;;;;2.33;0.98;;;37.50;1.00;;;;;;5044403;28;34425;-77
2022/08/04 10:38:39;;;;;;;3.30;1.00;;;37.40;1.00;;;;;;5027111;28;34310;-77
2022/08/04 10:41:33;;;;;;;1.75;1.15;;;37.40;1.00;;;;;;5029253;28;34358;-77
2022/08/04 10:44:14;;;;;;;2.45;1.00;;;37.50;1.00;;;;;;5040282;28;34277;-77
2022/08/04 10:47:01;;;;;;;0.82;0.80;;;37.80;1.00;;;;;;5029529;28;36430;-77
2022/08/04 10:49:36;;;;;;;3.10;0.80;;;38.10;1.00;;;;;;5049687;28;34293;-77
2022/08/04 10:52:23;;;;;;;1.42;0.60;;;38.30;1.00;;;;;;5044523;28;34349;-77
2022/08/04 10:55:10;;;;;;;1.60;0.80;;;38.50;1.00;;;;;;5045637;28;34407;-77
2022/08/04 10:57:40;;;;;;;1.83;0.80;;;38.70;1.00;;;;;;5023394;28;35676;-78
2022/08/04 11:00:13;;;;;;;0.95;0.85;;;38.60;1.00;;;;;;5040519;28;34300;-78
2022/08/04 11:02:52;;;;;;;0.93;0.93;;;38.50;1.00;;;;;;5005980;28;34258;-79
2022/08/04 11:05:49;;;;;;;0.80;0.80;;;38.30;1.00;;;;;;5040163;28;34510;-77
2022/08/04 11:08:34;;;;;;;1.13;0.80;;;38.10;1.00;;;;;;5051585;28;36107;-77
2022/08/04 11:11:25;;;;;;;2.28;1.52;;;37.90;1.00;;;;;;5044093;28;34183;-78
2022/08/04 11:14:16;;;;;;;1.30;1.20;;;37.80;1.00;;;;;;5030969;28;34333;-77
2022/08/04 11:16:50;;;;;;;2.65;1.10;;;37.50;1.00;;;;;;5045832;28;34019;-78
2022/08/04 11:19:46;;;;;;;2.83;0.80;;;37.20;1.00;;;;;;5037076;28;35931;-77
2022/08/04 11:22:28;;;;;;;1.33;1.00;;;36.90;1.00;;;;;;5040348;28;34348;-77
2022/08/04 11:25:13;;;;;;;2.17;0.70;;;36.70;1.00;;;;;;5043982;28;34277;-78
2022/08/04 11:28:03;;;;;;;1.17;0.93;;;36.50;1.00;;;;;;5027969;28;34336;-77
2022/08/04 11:30:36;;;;;;;1.48;0.95;;;36.30;1.00;;;;;;5043442;28;35626;-77
2022/08/04 11:33:38;;;;;;;4.80;2.65;;;36.10;1.00;;;;;;5044618;28;34094;-77
2022/08/04 11:36:21;;;;;;;5.47;0.90;;;36.00;1.00;;;;;;5040913;28;34314;-77
2022/08/04 11:39:07;;;;;;;3.10;1.40;;;35.90;1.00;;;;;;5050222;28;34249;-77
2022/08/04 11:41:58;;;;;;;3.08;0.95;;;35.80;1.00;;;;;;5044502;28;35906;-77
2022/08/04 11:44:41;;;;;;;13.05;1.05;;;35.70;1.00;;;;;;5024233;28;34072;-77
2022/08/04 11:47:19;;;;;;;0.85;0.60;;;35.60;1.00;;;;;;5043294;28;34651;-77
2022/08/04 11:49:51;;;;;;;3.10;0.82;;;35.60;1.00;;;;;;5043479;28;34553;-78
2022/08/04 11:52:21;;;;;;;4.60;0.60;;;35.60;1.00;;;;;;5041990;28;35811;-78
2022/08/04 11:54:48;;;;;;;4.03;1.00;;;35.60;1.00;;;;;;5031953;28;34182;-77
2022/08/04 11:57:14;;;;;;;1.08;0.98;;;35.60;1.00;;;;;;5024083;28;34151;-77
2022/08/04 11:59:42;;;;;;;1.05;0.95;;;35.60;1.00;;;;;;5043135;28;34131;-77
2022/08/04 12:02:32;;;;;;;1.48;0.80;;;35.60;1.00;;;;;;5043856;28;35845;-78
2022/08/04 12:05:00;;;;;;;0.82;0.80;;;35.60;1.00;;;;;;5041663;28;34308;-79
2022/08/04 12:07:49;;;;;;;2.83;0.77;;;35.80;1.00;;;;;;5042308;28;34243;-77
2022/08/04 12:10:40;;;;;;;0.55;0.52;;;36.10;1.00;;;;;;5058968;28;34449;-76
2022/08/04 12:13:37;;;;;;;0.77;0.70;;;36.40;1.00;;;;;;5032005;28;35795;-80
2022/08/04 12:16:21;;;;;;;1.48;0.65;;;36.80;1.00;;;;;;5043854;28;34208;-77
2022/08/04 12:18:58;;;;;;;0.95;0.70;;;37.30;1.00;;;;;;5044903;28;34201;-76
2022/08/04 12:21:43;;;;;;;5.20;0.88;;;37.50;1.00;;;;;;5027040;28;34424;-77
2022/08/04 12:24:36;;;;;;;2.10;0.70;;;37.90;1.00;;;;;;5044125;28;35484;-81
2022/08/04 12:27:22;;;;;;;0.70;0.70;;;38.20;1.00;;;;;;5044811;28;34038;-76
2022/08/04 12:29:48;;;;;;;0.70;0.70;;;38.40;1.00;;;;;;5044509;28;34237;-76
2022/08/04 12:32:42;;;;;;;0.93;0.70;;;38.50;1.00;;;;;;5043563;28;34089;-80
2022/08/04 12:35:44;;;;;;;0.80;0.70;;;38.70;1.00;;;;;;5030541;28;36560;-78
2022/08/04 12:38:13;;;;;;;0.73;0.70;;;38.80;1.00;;;;;;5034793;28;34280;-77
2022/08/04 12:40:49;;;;;;;2.30;0.75;;;38.80;1.00;;;;;;5034586;28;34307;-77
2022/08/04 12:43:38;;;;;;;4.63;0.95;;;38.60;1.00;;;;;;5063805;28;34230;-76
2022/08/04 12:46:07;;;;;;;0.80;0.80;;;38.40;1.00;;;;;;5060109;28;36705;-76
2022/08/04 12:48:36;;;;;;;0.82;0.82;;;38.30;1.00;;;;;;5039920;28;34130;-80
2022/08/04 12:51:03;;;;;;;5.20;0.90;;;38.30;1.00;;;;;;5042726;28;34348;-76
2022/08/04 12:53:35;;;;;;;0.90;0.90;;;38.40;1.00;;;;;;5022800;28;34308;-76
2022/08/04 12:56:03;;;;;;;1.13;0.90;;;38.50;1.00;;;;;;5024518;28;35084;-77
2022/08/04 12:58:35;;;;;;;0.95;0.88;;;38.60;1.00;;;;;;5063655;27;34188;-76
2022/08/04 13:01:05;;;;;;;5.95;1.02;;;38.70;1.00;;;;;;5067308;28;34260;-77
2022/08/04 13:03:51;;;;;;;1.05;0.80;;;38.90;1.00;;;;;;5057208;28;34088;-76
2022/08/04 13:06:25;;;;;;;3.35;0.80;;;38.90;1.00;;;;;;5046813;28;35610;-77
2022/08/04 13:08:53;;;;;;;1.40;0.73;;;38.90;1.00;;;;;;5052044;28;34179;-77
2022/08/04 13:11:21;;;;;;;0.88;0.88;;;38.80;1.00;;;;;;5067734;28;34290;-76
2022/08/04 13:13:54;;;;;;;1.77;0.70;;;38.60;1.00;;;;;;5085527;28;34560;-76
2022/08/04 13:16:29;;;;;;;1.83;0.90;;;38.60;1.00;;;;;;5067177;28;35734;-76
2022/08/04 13:18:56;;;;;;;0.80;0.80;;;38.50;1.00;;;;;;5085181;28;34056;-77
2022/08/04 13:21:27;;;;;;;2.55;0.80;;;38.60;1.00;;;;;;5056389;28;34367;-79
2022/08/04 13:23:58;;;;;;;1.45;0.77;;;38.60;1.00;;;;;;5087100;28;34286;-78
2022/08/04 13:26:26;;;;;;;0.75;0.65;;;38.80;1.00;;;;;;5099994;27;34546;-77
2022/08/04 13:28:56;;;;;;;1.10;0.73;;;39.00;1.00;;;;;;5075293;28;34613;-77
2022/08/04 13:31:26;;;;;;;1.45;0.85;;;39.20;1.00;;;;;;5103811;27;34402;-79
2022/08/04 13:34:04;;;;;;;2.20;0.90;;;39.50;1.00;;;;;;5088928;28;34070;-79
2022/08/04 13:36:32;;;;;;;1.95;0.70;;;39.50;1.00;;;;;;5071490;28;36260;-77
2022/08/04 13:39:07;;;;;;;1.23;0.80;;;39.50;1.00;;;;;;5106679;28;34205;-79
2022/08/04 13:41:35;;;;;;;0.65;0.65;;;39.30;1.00;;;;;;5088479;28;34454;-79
2022/08/04 13:44:08;;;;;;;2.25;0.70;;;39.20;1.00;;;;;;5064741;28;34444;-81
2022/08/04 13:46:40;;;;;;;0.70;0.70;;;39.10;1.00;;;;;;5060935;28;36129;-77
2022/08/04 13:49:10;;;;;;;0.88;0.70;;;39.10;1.00;;;;;;5065860;28;34243;-77
2022/08/04 13:51:37;;;;;;;2.45;0.80;;;39.10;1.00;;;;;;5083741;28;34185;-78
2022/08/04 13:54:04;;;;;;;1.50;0.80;;;39.00;1.00;;;;;;5070425;28;34353;-77
2022/08/04 13:56:38;;;;;;;3.55;0.80;;;39.10;1.00;;;;;;5064991;28;34429;-79
2022/08/04 13:59:10;;;;;;;1.15;0.80;;;39.00;1.00;;;;;;5069205;28;34295;-79
2022/08/04 14:01:41;;;;;;;1.92;0.95;;;38.80;1.00;;;;;;5073508;28;34189;-78